PWSweather.com
Personal Weather Stations
Station Observations
KCOBLACK1
Chalet Park, Black Hawk, CO 80422

Chalet ParkBlack Hawk, CO 80422

Lat: 39.8294, Lon: -105.48

Elevation: 9370

Station Type: Vantage Pro2

http://www.oscaranddeb.com/weather

High Low Average
Temperature 45.7°F7.6°F 36.4°F2.4°F 40.6°F4.8°F
Dew Point 33.7°F0.9°F 21.6°F-5.8°F 30.1°F-1.1°F
Winds 20.9 mph SW33.6 mph SW 1.7 mph 2.7 mph 11.2 mph 18.0 mph
Wind Gusts 40.0 mph64.4 mph 10.0 mph16.1 mph 25.0 mph40.2 mph
Humidity 75% 50% 66%
Pressure 30.27 in1025.10 in 30.16 in1021.30 in -
Precipitation 0.12 in3.00 in - -
Hour Temp Dew Point Humidity Winds Wind Gusts Pressure Precip Precip Rate Daily Precip Total
12:00 AM 36.9°F2.7°C 23.5°F-4.7°C 58% 9.0 mph SW14.5 kmh SW 18.0 mph29.0 kmh 30.25 in1024.4 mb 0.00 in0.0 mm 0.00 in0.0 mm 0.05 in1.3 mm
12:05 AM 37.0°F2.8°C 23.2°F-4.9°C 57% 8.7 mph SW14.0 kmh SW 16.0 mph25.7 kmh 30.25 in1024.4 mb 0.00 in0.0 mm 0.00 in0.0 mm 0.00 in0.0 mm
12:10 AM 37.3°F2.9°C 23.5°F-4.7°C 57% 8.0 mph SW12.9 kmh SW 14.0 mph22.5 kmh 30.26 in1024.7 mb 0.00 in0.0 mm 0.00 in0.0 mm 0.00 in0.0 mm
12:15 AM 37.4°F3.0°C 23.2°F-4.9°C 56% 7.4 mph SW11.9 kmh SW 13.0 mph20.9 kmh 30.26 in1024.7 mb 0.00 in0.0 mm 0.00 in0.0 mm 0.00 in0.0 mm
12:20 AM 37.6°F3.1°C 22.5°F-5.3°C 54% 6.5 mph WSW10.5 kmh WSW 12.0 mph19.3 kmh 30.25 in1024.4 mb 0.00 in0.0 mm 0.00 in0.0 mm 0.00 in0.0 mm
12:25 AM 37.9°F3.3°C 22.8°F-5.1°C 54% 4.4 mph WSW7.1 kmh WSW 11.0 mph17.7 kmh 30.24 in1024.0 mb 0.00 in0.0 mm 0.00 in0.0 mm 0.00 in0.0 mm
12:30 AM 37.9°F3.3°C 21.9°F-5.6°C 52% 4.4 mph W7.1 kmh W 10.0 mph16.1 kmh 30.24 in1024.0 mb 0.00 in0.0 mm 0.00 in0.0 mm 0.00 in0.0 mm
12:35 AM 38.2°F3.4°C 22.1°F-5.5°C 52% 7.1 mph SW11.4 kmh SW 12.0 mph19.3 kmh 30.25 in1024.4 mb 0.00 in0.0 mm 0.00 in0.0 mm 0.00 in0.0 mm
12:40 AM 38.1°F3.4°C 21.6°F-5.8°C 51% 6.5 mph WSW10.5 kmh WSW 12.0 mph19.3 kmh 30.25 in1024.4 mb 0.00 in0.0 mm 0.00 in0.0 mm 0.00 in0.0 mm
12:45 AM 38.2°F3.4°C 21.7°F-5.7°C 51% 5.5 mph SW8.9 kmh SW 12.0 mph19.3 kmh 30.25 in1024.4 mb 0.00 in0.0 mm 0.00 in0.0 mm 0.00 in0.0 mm
12:50 AM 38.2°F3.4°C 22.1°F-5.5°C 52% 5.1 mph WSW8.2 kmh WSW 14.0 mph22.5 kmh 30.25 in1024.4 mb 0.00 in0.0 mm 0.00 in0.0 mm 0.00 in0.0 mm
12:55 AM 38.8°F3.8°C 22.2°F-5.4°C 51% 9.0 mph SW14.5 kmh SW 20.0 mph32.2 kmh 30.25 in1024.4 mb 0.00 in0.0 mm 0.00 in0.0 mm 0.00 in0.0 mm
01:00 AM 39.1°F3.9°C 22.0°F-5.6°C 50% 5.2 mph WNW8.4 kmh WNW 20.0 mph32.2 kmh 30.25 in1024.4 mb 0.00 in0.0 mm 0.00 in0.0 mm 0.00 in0.0 mm
01:05 AM 39.0°F3.9°C 22.4°F-5.3°C 51% 8.4 mph WSW13.5 kmh WSW 15.0 mph24.1 kmh 30.25 in1024.4 mb 0.00 in0.0 mm 0.00 in0.0 mm 0.00 in0.0 mm
01:10 AM 38.9°F3.8°C 22.8°F-5.1°C 52% 9.6 mph SW15.4 kmh SW 22.0 mph35.4 kmh 30.24 in1024.0 mb 0.00 in0.0 mm 0.00 in0.0 mm 0.00 in0.0 mm
01:15 AM 38.4°F3.6°C 23.2°F-4.9°C 54% 10.2 mph SW16.4 kmh SW 22.0 mph35.4 kmh 30.25 in1024.4 mb 0.00 in0.0 mm 0.00 in0.0 mm 0.00 in0.0 mm
01:20 AM 37.9°F3.3°C 23.2°F-4.9°C 55% 9.7 mph SW15.6 kmh SW 18.0 mph29.0 kmh 30.24 in1024.0 mb 0.00 in0.0 mm 0.00 in0.0 mm 0.00 in0.0 mm
01:25 AM 37.9°F3.3°C 23.6°F-4.7°C 56% 11.3 mph SW18.2 kmh SW 18.0 mph29.0 kmh 30.24 in1024.0 mb 0.00 in0.0 mm 0.00 in0.0 mm 0.00 in0.0 mm
01:30 AM 37.8°F3.2°C 23.5°F-4.7°C 56% 9.8 mph SW15.8 kmh SW 18.0 mph29.0 kmh 30.24 in1024.0 mb 0.00 in0.0 mm 0.00 in0.0 mm 0.00 in0.0 mm
01:35 AM 37.8°F3.2°C 24.0°F-4.4°C 57% 11.0 mph SW17.7 kmh SW 20.0 mph32.2 kmh 30.24 in1024.0 mb 0.00 in0.0 mm 0.00 in0.0 mm 0.00 in0.0 mm
01:40 AM 37.8°F3.2°C 24.0°F-4.4°C 57% 10.0 mph SW16.1 kmh SW 20.0 mph32.2 kmh 30.24 in1024.0 mb 0.00 in0.0 mm 0.00 in0.0 mm 0.00 in0.0 mm
01:45 AM 37.6°F3.1°C 24.2°F-4.3°C 58% 11.8 mph SW19.0 kmh SW 22.0 mph35.4 kmh 30.23 in1023.7 mb 0.00 in0.0 mm 0.00 in0.0 mm 0.00 in0.0 mm
01:50 AM 37.5°F3.1°C 24.1°F-4.4°C 58% 10.1 mph WSW16.3 kmh WSW 22.0 mph35.4 kmh 30.24 in1024.0 mb 0.00 in0.0 mm 0.00 in0.0 mm 0.00 in0.0 mm
01:55 AM 37.4°F3.0°C 24.4°F-4.2°C 59% 10.5 mph SW16.9 kmh SW 18.0 mph29.0 kmh 30.24 in1024.0 mb 0.00 in0.0 mm 0.00 in0.0 mm 0.00 in0.0 mm
02:00 AM 37.5°F3.1°C 24.5°F-4.2°C 59% 11.2 mph SW18.0 kmh SW 19.0 mph30.6 kmh 30.24 in1024.0 mb 0.00 in0.0 mm 0.00 in0.0 mm 0.00 in0.0 mm
02:05 AM 37.4°F3.0°C 24.4°F-4.2°C 59% 12.9 mph SW20.8 kmh SW 21.0 mph33.8 kmh 30.23 in1023.7 mb 0.00 in0.0 mm 0.00 in0.0 mm 0.00 in0.0 mm
02:10 AM 37.4°F3.0°C 24.8°F-4.0°C 60% 9.4 mph WSW15.1 kmh WSW 21.0 mph33.8 kmh 30.23 in1023.7 mb 0.00 in0.0 mm 0.00 in0.0 mm 0.00 in0.0 mm
02:15 AM 37.3°F2.9°C 24.7°F-4.1°C 60% 11.1 mph SW17.9 kmh SW 20.0 mph32.2 kmh 30.23 in1023.7 mb 0.00 in0.0 mm 0.00 in0.0 mm 0.00 in0.0 mm
02:20 AM 37.4°F3.0°C 25.6°F-3.6°C 62% 11.2 mph SW18.0 kmh SW 21.0 mph33.8 kmh 30.22 in1023.4 mb 0.00 in0.0 mm 0.00 in0.0 mm 0.00 in0.0 mm
02:25 AM 37.6°F3.1°C 25.8°F-3.4°C 62% 8.0 mph W12.9 kmh W 24.0 mph38.6 kmh 30.23 in1023.7 mb 0.00 in0.0 mm 0.00 in0.0 mm 0.00 in0.0 mm
02:30 AM 37.8°F3.2°C 26.0°F-3.3°C 62% 5.7 mph W9.2 kmh W 24.0 mph38.6 kmh 30.24 in1024.0 mb 0.00 in0.0 mm 0.00 in0.0 mm 0.00 in0.0 mm
02:35 AM 38.0°F3.3°C 25.8°F-3.4°C 61% 9.9 mph W15.9 kmh W 19.0 mph30.6 kmh 30.24 in1024.0 mb 0.00 in0.0 mm 0.00 in0.0 mm 0.00 in0.0 mm
02:40 AM 37.8°F3.2°C 25.6°F-3.6°C 61% 10.4 mph WSW16.7 kmh WSW 23.0 mph37.0 kmh 30.23 in1023.7 mb 0.00 in0.0 mm 0.00 in0.0 mm 0.00 in0.0 mm
02:45 AM 37.6°F3.1°C 25.8°F-3.4°C 62% 10.6 mph SW17.1 kmh SW 24.0 mph38.6 kmh 30.23 in1023.7 mb 0.00 in0.0 mm 0.00 in0.0 mm 0.00 in0.0 mm
02:50 AM 37.3°F2.9°C 25.9°F-3.4°C 63% 8.4 mph W13.5 kmh W 24.0 mph38.6 kmh 30.23 in1023.7 mb 0.00 in0.0 mm 0.00 in0.0 mm 0.00 in0.0 mm
02:55 AM 36.9°F2.7°C 26.3°F-3.2°C 65% 11.2 mph SW18.0 kmh SW 22.0 mph35.4 kmh 30.23 in1023.7 mb 0.00 in0.0 mm 0.00 in0.0 mm 0.00 in0.0 mm
03:00 AM 37.0°F2.8°C 26.3°F-3.2°C 65% 12.7 mph SW20.4 kmh SW 24.0 mph38.6 kmh 30.23 in1023.7 mb 0.00 in0.0 mm 0.00 in0.0 mm 0.00 in0.0 mm
03:05 AM 36.9°F2.7°C 26.3°F-3.2°C 65% 10.8 mph WSW17.4 kmh WSW 28.0 mph45.1 kmh 30.22 in1023.4 mb 0.00 in0.0 mm 0.00 in0.0 mm 0.00 in0.0 mm
03:10 AM 37.0°F2.8°C 26.0°F-3.3°C 64% 11.9 mph WSW19.2 kmh WSW 28.0 mph45.1 kmh 30.22 in1023.4 mb 0.00 in0.0 mm 0.00 in0.0 mm 0.00 in0.0 mm
03:15 AM 37.2°F2.9°C 25.8°F-3.4°C 63% 10.9 mph WSW17.5 kmh WSW 27.0 mph43.5 kmh 30.23 in1023.7 mb 0.00 in0.0 mm 0.00 in0.0 mm 0.00 in0.0 mm
03:20 AM 37.1°F2.8°C 26.1°F-3.3°C 64% 10.1 mph WSW16.3 kmh WSW 20.0 mph32.2 kmh 30.23 in1023.7 mb 0.00 in0.0 mm 0.00 in0.0 mm 0.00 in0.0 mm
03:25 AM 36.8°F2.7°C 26.2°F-3.2°C 65% 14.3 mph SW23.0 kmh SW 25.0 mph40.2 kmh 30.23 in1023.7 mb 0.00 in0.0 mm 0.00 in0.0 mm 0.00 in0.0 mm
03:30 AM 36.7°F2.6°C 26.1°F-3.3°C 65% 12.6 mph SW20.3 kmh SW 26.0 mph41.8 kmh 30.23 in1023.7 mb 0.00 in0.0 mm 0.00 in0.0 mm 0.00 in0.0 mm
03:35 AM 36.5°F2.5°C 26.2°F-3.2°C 66% 15.8 mph WSW25.4 kmh WSW 33.0 mph53.1 kmh 30.23 in1023.7 mb 0.00 in0.0 mm 0.00 in0.0 mm 0.00 in0.0 mm
03:40 AM 36.4°F2.4°C 26.1°F-3.3°C 66% 15.8 mph W25.4 kmh W 34.0 mph54.7 kmh 30.24 in1024.0 mb 0.00 in0.0 mm 0.00 in0.0 mm 0.00 in0.0 mm
03:45 AM 36.4°F2.4°C 26.1°F-3.3°C 66% 12.2 mph WSW19.6 kmh WSW 34.0 mph54.7 kmh 30.23 in1023.7 mb 0.00 in0.0 mm 0.00 in0.0 mm 0.00 in0.0 mm
03:50 AM 36.4°F2.4°C 26.5°F-3.1°C 67% 14.1 mph WSW22.7 kmh WSW 28.0 mph45.1 kmh 30.23 in1023.7 mb 0.00 in0.0 mm 0.00 in0.0 mm 0.00 in0.0 mm
03:55 AM 36.4°F2.4°C 26.1°F-3.3°C 66% 11.8 mph WSW19.0 kmh WSW 28.0 mph45.1 kmh 30.22 in1023.4 mb 0.00 in0.0 mm 0.00 in0.0 mm 0.00 in0.0 mm
04:00 AM 36.7°F2.6°C 26.4°F-3.1°C 66% 14.4 mph SW23.2 kmh SW 28.0 mph45.1 kmh 30.22 in1023.4 mb 0.00 in0.0 mm 0.00 in0.0 mm 0.00 in0.0 mm
04:05 AM 36.8°F2.7°C 26.2°F-3.2°C 65% 9.2 mph SW14.8 kmh SW 28.0 mph45.1 kmh 30.23 in1023.7 mb 0.00 in0.0 mm 0.00 in0.0 mm 0.00 in0.0 mm
04:10 AM 36.8°F2.7°C 26.5°F-3.1°C 66% 9.6 mph WSW15.4 kmh WSW 25.0 mph40.2 kmh 30.23 in1023.7 mb 0.00 in0.0 mm 0.00 in0.0 mm 0.00 in0.0 mm
04:15 AM 37.0°F2.8°C 26.3°F-3.2°C 65% 10.8 mph SW17.4 kmh SW 25.0 mph40.2 kmh 30.22 in1023.4 mb 0.00 in0.0 mm 0.00 in0.0 mm 0.00 in0.0 mm
04:20 AM 37.3°F2.9°C 26.3°F-3.2°C 64% 16.5 mph SW26.6 kmh SW 32.0 mph51.5 kmh 30.21 in1023.0 mb 0.00 in0.0 mm 0.00 in0.0 mm 0.00 in0.0 mm
04:25 AM 37.2°F2.9°C 26.2°F-3.2°C 64% 12.4 mph WSW20.0 kmh WSW 32.0 mph51.5 kmh 30.21 in1023.0 mb 0.00 in0.0 mm 0.00 in0.0 mm 0.00 in0.0 mm
04:30 AM 37.5°F3.1°C 26.1°F-3.3°C 63% 12.3 mph WSW19.8 kmh WSW 26.0 mph41.8 kmh 30.22 in1023.4 mb 0.00 in0.0 mm 0.00 in0.0 mm 0.00 in0.0 mm
04:35 AM 37.6°F3.1°C 26.2°F-3.2°C 63% 12.2 mph WSW19.6 kmh WSW 26.0 mph41.8 kmh 30.21 in1023.0 mb 0.00 in0.0 mm 0.00 in0.0 mm 0.00 in0.0 mm
04:40 AM 38.0°F3.3°C 25.8°F-3.4°C 61% 14.1 mph WSW22.7 kmh WSW 26.0 mph41.8 kmh 30.21 in1023.0 mb 0.00 in0.0 mm 0.00 in0.0 mm 0.00 in0.0 mm
04:45 AM 38.3°F3.5°C 25.6°F-3.6°C 60% 18.0 mph SW29.0 kmh SW 32.0 mph51.5 kmh 30.22 in1023.4 mb 0.00 in0.0 mm 0.00 in0.0 mm 0.00 in0.0 mm
04:50 AM 38.4°F3.6°C 25.7°F-3.5°C 60% 13.1 mph WSW21.1 kmh WSW 32.0 mph51.5 kmh 30.22 in1023.4 mb 0.00 in0.0 mm 0.00 in0.0 mm 0.00 in0.0 mm
04:55 AM 38.2°F3.4°C 25.6°F-3.6°C 60% 9.3 mph WSW15.0 kmh WSW 30.0 mph48.3 kmh 30.21 in1023.0 mb 0.00 in0.0 mm 0.00 in0.0 mm 0.00 in0.0 mm
05:00 AM 38.3°F3.5°C 25.6°F-3.6°C 60% 8.1 mph W13.0 kmh W 24.0 mph38.6 kmh 30.22 in1023.4 mb 0.00 in0.0 mm 0.00 in0.0 mm 0.00 in0.0 mm
05:05 AM 38.4°F3.6°C 25.7°F-3.5°C 60% 15.2 mph W24.5 kmh W 29.0 mph46.7 kmh 30.22 in1023.4 mb 0.00 in0.0 mm 0.00 in0.0 mm 0.00 in0.0 mm
05:10 AM 38.7°F3.7°C 25.6°F-3.6°C 59% 11.7 mph W18.8 kmh W 29.0 mph46.7 kmh 30.20 in1022.7 mb 0.00 in0.0 mm 0.00 in0.0 mm 0.00 in0.0 mm
05:15 AM 38.9°F3.8°C 25.8°F-3.4°C 59% 14.6 mph WSW23.5 kmh WSW 30.0 mph48.3 kmh 30.21 in1023.0 mb 0.00 in0.0 mm 0.00 in0.0 mm 0.00 in0.0 mm
05:20 AM 38.6°F3.7°C 26.3°F-3.2°C 61% 11.2 mph WSW18.0 kmh WSW 30.0 mph48.3 kmh 30.20 in1022.7 mb 0.00 in0.0 mm 0.00 in0.0 mm 0.00 in0.0 mm
05:25 AM 38.4°F3.6°C 26.5°F-3.1°C 62% 11.8 mph W19.0 kmh W 30.0 mph48.3 kmh 30.20 in1022.7 mb 0.00 in0.0 mm 0.00 in0.0 mm 0.00 in0.0 mm
05:30 AM 38.4°F3.6°C 26.9°F-2.8°C 63% 16.3 mph WSW26.2 kmh WSW 31.0 mph49.9 kmh 30.20 in1022.7 mb 0.00 in0.0 mm 0.00 in0.0 mm 0.00 in0.0 mm
05:35 AM 38.5°F3.6°C 27.0°F-2.8°C 63% 17.0 mph WSW27.4 kmh WSW 31.0 mph49.9 kmh 30.20 in1022.7 mb 0.00 in0.0 mm 0.00 in0.0 mm 0.00 in0.0 mm
05:40 AM 38.5°F3.6°C 27.4°F-2.6°C 64% 16.5 mph WSW26.6 kmh WSW 35.0 mph56.3 kmh 30.20 in1022.7 mb 0.00 in0.0 mm 0.00 in0.0 mm 0.00 in0.0 mm
05:45 AM 38.5°F3.6°C 27.4°F-2.6°C 64% 19.2 mph SW30.9 kmh SW 36.0 mph57.9 kmh 30.19 in1022.4 mb 0.00 in0.0 mm 0.00 in0.0 mm 0.00 in0.0 mm
05:50 AM 38.5°F3.6°C 27.4°F-2.6°C 64% 16.3 mph WSW26.2 kmh WSW 36.0 mph57.9 kmh 30.19 in1022.4 mb 0.00 in0.0 mm 0.00 in0.0 mm 0.00 in0.0 mm
05:55 AM 38.7°F3.7°C 28.0°F-2.2°C 65% 20.9 mph SW33.6 kmh SW 37.0 mph59.5 kmh 30.19 in1022.4 mb 0.00 in0.0 mm 0.00 in0.0 mm 0.00 in0.0 mm
06:00 AM 38.7°F3.7°C 28.0°F-2.2°C 65% 15.9 mph WSW25.6 kmh WSW 37.0 mph59.5 kmh 30.20 in1022.7 mb 0.00 in0.0 mm 0.00 in0.0 mm 0.00 in0.0 mm
06:05 AM 38.8°F3.8°C 28.4°F-2.0°C 66% 16.9 mph WSW27.2 kmh WSW 36.0 mph57.9 kmh 30.21 in1023.0 mb 0.00 in0.0 mm 0.00 in0.0 mm 0.00 in0.0 mm
06:10 AM 38.8°F3.8°C 28.8°F-1.8°C 67% 15.4 mph WSW24.8 kmh WSW 36.0 mph57.9 kmh 30.20 in1022.7 mb 0.00 in0.0 mm 0.00 in0.0 mm 0.00 in0.0 mm
06:15 AM 38.9°F3.8°C 28.9°F-1.7°C 67% 18.3 mph WSW29.5 kmh WSW 36.0 mph57.9 kmh 30.19 in1022.4 mb 0.00 in0.0 mm 0.00 in0.0 mm 0.00 in0.0 mm
06:20 AM 39.1°F3.9°C 29.4°F-1.4°C 68% 13.6 mph W21.9 kmh W 35.0 mph56.3 kmh 30.21 in1023.0 mb 0.00 in0.0 mm 0.00 in0.0 mm 0.00 in0.0 mm
06:25 AM 39.2°F4.0°C 29.5°F-1.4°C 68% 14.4 mph WSW23.2 kmh WSW 28.0 mph45.1 kmh 30.19 in1022.4 mb 0.00 in0.0 mm 0.00 in0.0 mm 0.00 in0.0 mm
06:30 AM 39.7°F4.3°C 29.7°F-1.3°C 67% 16.2 mph WSW26.1 kmh WSW 32.0 mph51.5 kmh 30.20 in1022.7 mb 0.00 in0.0 mm 0.00 in0.0 mm 0.00 in0.0 mm
06:35 AM 39.8°F4.3°C 29.8°F-1.2°C 67% 16.1 mph WSW25.9 kmh WSW 36.0 mph57.9 kmh 30.21 in1023.0 mb 0.00 in0.0 mm 0.00 in0.0 mm 0.00 in0.0 mm
06:40 AM 39.8°F4.3°C 29.8°F-1.2°C 67% 15.4 mph WSW24.8 kmh WSW 36.0 mph57.9 kmh 30.21 in1023.0 mb 0.00 in0.0 mm 0.00 in0.0 mm 0.00 in0.0 mm
06:45 AM 39.9°F4.4°C 29.8°F-1.2°C 67% 13.6 mph W21.9 kmh W 31.0 mph49.9 kmh 30.20 in1022.7 mb 0.00 in0.0 mm 0.00 in0.0 mm 0.00 in0.0 mm
06:50 AM 39.9°F4.4°C 29.8°F-1.2°C 67% 12.1 mph WSW19.5 kmh WSW 28.0 mph45.1 kmh 30.20 in1022.7 mb 0.00 in0.0 mm 0.00 in0.0 mm 0.00 in0.0 mm
06:55 AM 40.2°F4.6°C 29.8°F-1.2°C 66% 14.0 mph SW22.5 kmh SW 34.0 mph54.7 kmh 30.20 in1022.7 mb 0.00 in0.0 mm 0.00 in0.0 mm 0.00 in0.0 mm
07:00 AM 40.6°F4.8°C 29.8°F-1.2°C 65% 16.2 mph WSW26.1 kmh WSW 34.0 mph54.7 kmh 30.20 in1022.7 mb 0.00 in0.0 mm 0.00 in0.0 mm 0.00 in0.0 mm
07:05 AM 40.4°F4.7°C 29.6°F-1.3°C 65% 14.0 mph W22.5 kmh W 31.0 mph49.9 kmh 30.20 in1022.7 mb 0.00 in0.0 mm 0.00 in0.0 mm 0.00 in0.0 mm
07:10 AM 40.2°F4.6°C 29.4°F-1.4°C 65% 15.0 mph WSW24.1 kmh WSW 31.0 mph49.9 kmh 30.21 in1023.0 mb 0.00 in0.0 mm 0.00 in0.0 mm 0.00 in0.0 mm
07:15 AM 40.2°F4.6°C 29.4°F-1.4°C 65% 14.0 mph WSW22.5 kmh WSW 30.0 mph48.3 kmh 30.21 in1023.0 mb 0.00 in0.0 mm 0.00 in0.0 mm 0.00 in0.0 mm
07:20 AM 40.0°F4.4°C 29.6°F-1.3°C 66% 12.3 mph WSW19.8 kmh WSW 27.0 mph43.5 kmh 30.21 in1023.0 mb 0.00 in0.0 mm 0.00 in0.0 mm 0.00 in0.0 mm
07:25 AM 40.0°F4.4°C 29.6°F-1.3°C 66% 15.6 mph W25.1 kmh W 40.0 mph64.4 kmh 30.21 in1023.0 mb 0.00 in0.0 mm 0.00 in0.0 mm 0.00 in0.0 mm
07:30 AM 39.9°F4.4°C 29.5°F-1.4°C 66% 13.2 mph WSW21.2 kmh WSW 40.0 mph64.4 kmh 30.21 in1023.0 mb 0.00 in0.0 mm 0.00 in0.0 mm 0.00 in0.0 mm
07:35 AM 39.8°F4.3°C 29.4°F-1.4°C 66% 13.3 mph W21.4 kmh W 40.0 mph64.4 kmh 30.22 in1023.4 mb 0.00 in0.0 mm 0.00 in0.0 mm 0.00 in0.0 mm
07:40 AM 40.0°F4.4°C 29.6°F-1.3°C 66% 16.0 mph WSW25.7 kmh WSW 32.0 mph51.5 kmh 30.21 in1023.0 mb 0.00 in0.0 mm 0.00 in0.0 mm 0.00 in0.0 mm
07:45 AM 39.9°F4.4°C 29.5°F-1.4°C 66% 15.2 mph WSW24.5 kmh WSW 32.0 mph51.5 kmh 30.21 in1023.0 mb 0.00 in0.0 mm 0.00 in0.0 mm 0.00 in0.0 mm
07:50 AM 39.9°F4.4°C 29.5°F-1.4°C 66% 15.5 mph WSW24.9 kmh WSW 33.0 mph53.1 kmh 30.21 in1023.0 mb 0.00 in0.0 mm 0.00 in0.0 mm 0.00 in0.0 mm
07:55 AM 40.0°F4.4°C 29.6°F-1.3°C 66% 17.9 mph WSW28.8 kmh WSW 36.0 mph57.9 kmh 30.22 in1023.4 mb 0.00 in0.0 mm 0.00 in0.0 mm 0.00 in0.0 mm
08:00 AM 40.0°F4.4°C 29.6°F-1.3°C 66% 16.1 mph WSW25.9 kmh WSW 36.0 mph57.9 kmh 30.22 in1023.4 mb 0.00 in0.0 mm 0.00 in0.0 mm 0.00 in0.0 mm
08:05 AM 40.1°F4.5°C 29.7°F-1.3°C 66% 15.7 mph WSW25.3 kmh WSW 35.0 mph56.3 kmh 30.23 in1023.7 mb 0.00 in0.0 mm 0.00 in0.0 mm 0.00 in0.0 mm
08:10 AM 40.2°F4.6°C 29.8°F-1.2°C 66% 16.5 mph SW26.6 kmh SW 35.0 mph56.3 kmh 30.23 in1023.7 mb 0.00 in0.0 mm 0.00 in0.0 mm 0.00 in0.0 mm
08:15 AM 40.4°F4.7°C 30.0°F-1.1°C 66% 13.6 mph WSW21.9 kmh WSW 29.0 mph46.7 kmh 30.23 in1023.7 mb 0.00 in0.0 mm 0.00 in0.0 mm 0.00 in0.0 mm
08:20 AM 40.5°F4.7°C 29.7°F-1.3°C 65% 13.6 mph WSW21.9 kmh WSW 29.0 mph46.7 kmh 30.23 in1023.7 mb 0.00 in0.0 mm 0.00 in0.0 mm 0.00 in0.0 mm
08:25 AM 40.4°F4.7°C 29.6°F-1.3°C 65% 15.2 mph WSW24.5 kmh WSW 29.0 mph46.7 kmh 30.23 in1023.7 mb 0.00 in0.0 mm 0.00 in0.0 mm 0.00 in0.0 mm
08:30 AM 40.2°F4.6°C 29.8°F-1.2°C 66% 15.4 mph WSW24.8 kmh WSW 30.0 mph48.3 kmh 30.24 in1024.0 mb 0.00 in0.0 mm 0.00 in0.0 mm 0.00 in0.0 mm
08:35 AM 40.2°F4.6°C 29.8°F-1.2°C 66% 14.5 mph WSW23.3 kmh WSW 32.0 mph51.5 kmh 30.23 in1023.7 mb 0.00 in0.0 mm 0.00 in0.0 mm 0.00 in0.0 mm
08:40 AM 40.5°F4.7°C 30.0°F-1.1°C 66% 18.0 mph WSW29.0 kmh WSW 38.0 mph61.2 kmh 30.24 in1024.0 mb 0.01 in0.3 mm 0.12 in3.0 mm 0.01 in0.3 mm
08:45 AM 40.7°F4.8°C 29.9°F-1.2°C 65% 16.7 mph WSW26.9 kmh WSW 38.0 mph61.2 kmh 30.24 in1024.0 mb 0.01 in0.3 mm 0.00 in0.0 mm 0.01 in0.3 mm
08:50 AM 41.0°F5.0°C 30.2°F-1.0°C 65% 16.0 mph WSW25.7 kmh WSW 35.0 mph56.3 kmh 30.25 in1024.4 mb 0.01 in0.3 mm 0.00 in0.0 mm 0.01 in0.3 mm
08:55 AM 41.0°F5.0°C 29.8°F-1.2°C 64% 18.0 mph SW29.0 kmh SW 36.0 mph57.9 kmh 30.24 in1024.0 mb 0.01 in0.3 mm 0.00 in0.0 mm 0.01 in0.3 mm
09:00 AM 41.0°F5.0°C 30.2°F-1.0°C 65% 15.5 mph WSW24.9 kmh WSW 36.0 mph57.9 kmh 30.24 in1024.0 mb 0.01 in0.3 mm 0.00 in0.0 mm 0.01 in0.3 mm
09:05 AM 41.1°F5.1°C 29.9°F-1.2°C 64% 15.9 mph WSW25.6 kmh WSW 30.0 mph48.3 kmh 30.25 in1024.4 mb 0.01 in0.3 mm 0.00 in0.0 mm 0.01 in0.3 mm
09:10 AM 41.0°F5.0°C 30.2°F-1.0°C 65% 17.5 mph SW28.2 kmh SW 32.0 mph51.5 kmh 30.24 in1024.0 mb 0.01 in0.3 mm 0.00 in0.0 mm 0.01 in0.3 mm
09:15 AM 41.0°F5.0°C 30.2°F-1.0°C 65% 15.4 mph WSW24.8 kmh WSW 32.0 mph51.5 kmh 30.24 in1024.0 mb 0.01 in0.3 mm 0.00 in0.0 mm 0.01 in0.3 mm
09:20 AM 41.0°F5.0°C 30.2°F-1.0°C 65% 16.3 mph SW26.2 kmh SW 29.0 mph46.7 kmh 30.24 in1024.0 mb 0.01 in0.3 mm 0.00 in0.0 mm 0.01 in0.3 mm
09:25 AM 41.1°F5.1°C 30.2°F-1.0°C 65% 18.1 mph SW29.1 kmh SW 33.0 mph53.1 kmh 30.24 in1024.0 mb 0.01 in0.3 mm 0.00 in0.0 mm 0.01 in0.3 mm
09:30 AM 41.2°F5.1°C 30.3°F-0.9°C 65% 17.2 mph SW27.7 kmh SW 33.0 mph53.1 kmh 30.25 in1024.4 mb 0.01 in0.3 mm 0.00 in0.0 mm 0.01 in0.3 mm
09:35 AM 41.6°F5.3°C 30.7°F-0.7°C 65% 15.1 mph SW24.3 kmh SW 30.0 mph48.3 kmh 30.24 in1024.0 mb 0.01 in0.3 mm 0.00 in0.0 mm 0.01 in0.3 mm
09:40 AM 41.8°F5.4°C 30.5°F-0.8°C 64% 15.6 mph WSW25.1 kmh WSW 33.0 mph53.1 kmh 30.25 in1024.4 mb 0.00 in0.0 mm 0.00 in0.0 mm 0.01 in0.3 mm
09:45 AM 42.3°F5.7°C 31.0°F-0.6°C 64% 16.4 mph SW26.4 kmh SW 33.0 mph53.1 kmh 30.25 in1024.4 mb 0.00 in0.0 mm 0.00 in0.0 mm 0.01 in0.3 mm
09:50 AM 42.7°F5.9°C 31.0°F-0.6°C 63% 16.2 mph SW26.1 kmh SW 29.0 mph46.7 kmh 30.25 in1024.4 mb 0.00 in0.0 mm 0.00 in0.0 mm 0.01 in0.3 mm
09:55 AM 43.2°F6.2°C 31.1°F-0.5°C 62% 14.9 mph SW24.0 kmh SW 29.0 mph46.7 kmh 30.25 in1024.4 mb 0.00 in0.0 mm 0.00 in0.0 mm 0.01 in0.3 mm
10:00 AM 43.6°F6.4°C 31.0°F-0.6°C 61% 15.4 mph WSW24.8 kmh WSW 27.0 mph43.5 kmh 30.25 in1024.4 mb 0.00 in0.0 mm 0.00 in0.0 mm 0.01 in0.3 mm
10:05 AM 43.4°F6.3°C 31.3°F-0.4°C 62% 12.1 mph WSW19.5 kmh WSW 27.0 mph43.5 kmh 30.25 in1024.4 mb 0.00 in0.0 mm 0.00 in0.0 mm 0.01 in0.3 mm
10:10 AM 43.7°F6.5°C 31.5°F-0.3°C 62% 15.2 mph SW24.5 kmh SW 29.0 mph46.7 kmh 30.25 in1024.4 mb 0.00 in0.0 mm 0.00 in0.0 mm 0.01 in0.3 mm
10:15 AM 43.4°F6.3°C 31.3°F-0.4°C 62% 10.6 mph W17.1 kmh W 29.0 mph46.7 kmh 30.26 in1024.7 mb 0.00 in0.0 mm 0.00 in0.0 mm 0.01 in0.3 mm
10:20 AM 43.5°F6.4°C 31.4°F-0.3°C 62% 16.1 mph SW25.9 kmh SW 32.0 mph51.5 kmh 30.26 in1024.7 mb 0.00 in0.0 mm 0.00 in0.0 mm 0.01 in0.3 mm
10:25 AM 43.8°F6.6°C 31.2°F-0.4°C 61% 15.5 mph SW24.9 kmh SW 32.0 mph51.5 kmh 30.25 in1024.4 mb 0.00 in0.0 mm 0.00 in0.0 mm 0.01 in0.3 mm
10:30 AM 43.7°F6.5°C 31.5°F-0.3°C 62% 12.5 mph SW20.1 kmh SW 26.0 mph41.8 kmh 30.27 in1025.1 mb 0.00 in0.0 mm 0.00 in0.0 mm 0.01 in0.3 mm
10:35 AM 43.4°F6.3°C 31.3°F-0.4°C 62% 11.7 mph SW18.8 kmh SW 25.0 mph40.2 kmh 30.27 in1025.1 mb 0.00 in0.0 mm 0.00 in0.0 mm 0.01 in0.3 mm
10:40 AM 43.5°F6.4°C 31.4°F-0.3°C 62% 12.9 mph WSW20.8 kmh WSW 28.0 mph45.1 kmh 30.26 in1024.7 mb 0.00 in0.0 mm 0.00 in0.0 mm 0.01 in0.3 mm
10:45 AM 43.8°F6.6°C 31.6°F-0.2°C 62% 10.7 mph WSW17.2 kmh WSW 28.0 mph45.1 kmh 30.25 in1024.4 mb 0.00 in0.0 mm 0.00 in0.0 mm 0.01 in0.3 mm
10:50 AM 43.4°F6.3°C 31.7°F-0.2°C 63% 14.6 mph WSW23.5 kmh WSW 25.0 mph40.2 kmh 30.25 in1024.4 mb 0.00 in0.0 mm 0.00 in0.0 mm 0.01 in0.3 mm
10:55 AM 43.6°F6.4°C 31.5°F-0.3°C 62% 13.4 mph WSW21.6 kmh WSW 25.0 mph40.2 kmh 30.26 in1024.7 mb 0.00 in0.0 mm 0.00 in0.0 mm 0.01 in0.3 mm
11:00 AM 43.8°F6.6°C 31.6°F-0.2°C 62% 13.5 mph WSW21.7 kmh WSW 29.0 mph46.7 kmh 30.26 in1024.7 mb 0.00 in0.0 mm 0.00 in0.0 mm 0.01 in0.3 mm
11:05 AM 44.0°F6.7°C 31.4°F-0.3°C 61% 12.9 mph WSW20.8 kmh WSW 29.0 mph46.7 kmh 30.26 in1024.7 mb 0.00 in0.0 mm 0.00 in0.0 mm 0.01 in0.3 mm
11:10 AM 43.8°F6.6°C 31.2°F-0.4°C 61% 10.9 mph WSW17.5 kmh WSW 24.0 mph38.6 kmh 30.27 in1025.1 mb 0.00 in0.0 mm 0.00 in0.0 mm 0.01 in0.3 mm
11:15 AM 44.4°F6.9°C 31.8°F-0.1°C 61% 10.6 mph WSW17.1 kmh WSW 24.0 mph38.6 kmh 30.25 in1024.4 mb 0.00 in0.0 mm 0.00 in0.0 mm 0.01 in0.3 mm
11:20 AM 44.5°F6.9°C 31.9°F-0.1°C 61% 7.3 mph WSW11.7 kmh WSW 24.0 mph38.6 kmh 30.25 in1024.4 mb 0.00 in0.0 mm 0.00 in0.0 mm 0.01 in0.3 mm
11:25 AM 44.7°F7.1°C 31.7°F-0.2°C 60% 9.1 mph WSW14.6 kmh WSW 16.0 mph25.7 kmh 30.24 in1024.0 mb 0.00 in0.0 mm 0.00 in0.0 mm 0.01 in0.3 mm
11:30 AM 44.7°F7.1°C 31.7°F-0.2°C 60% 7.8 mph W12.6 kmh W 16.0 mph25.7 kmh 30.25 in1024.4 mb 0.00 in0.0 mm 0.00 in0.0 mm 0.01 in0.3 mm
11:35 AM 45.0°F7.2°C 31.5°F-0.3°C 59% 4.8 mph SW7.7 kmh SW 16.0 mph25.7 kmh 30.24 in1024.0 mb 0.00 in0.0 mm 0.00 in0.0 mm 0.01 in0.3 mm
11:40 AM 45.2°F7.3°C 31.3°F-0.4°C 58% 5.7 mph W9.2 kmh W 14.0 mph22.5 kmh 30.23 in1023.7 mb 0.00 in0.0 mm 0.00 in0.0 mm 0.01 in0.3 mm
11:45 AM 45.5°F7.5°C 31.6°F-0.2°C 58% 5.6 mph W9.0 kmh W 14.0 mph22.5 kmh 30.23 in1023.7 mb 0.00 in0.0 mm 0.00 in0.0 mm 0.01 in0.3 mm
11:50 AM 45.7°F7.6°C 31.8°F-0.1°C 58% 7.5 mph WSW12.1 kmh WSW 15.0 mph24.1 kmh 30.23 in1023.7 mb 0.00 in0.0 mm 0.00 in0.0 mm 0.01 in0.3 mm
11:55 AM 45.5°F7.5°C 31.6°F-0.2°C 58% 6.1 mph W9.8 kmh W 15.0 mph24.1 kmh 30.24 in1024.0 mb 0.00 in0.0 mm 0.00 in0.0 mm 0.01 in0.3 mm
12:00 PM 44.9°F7.2°C 31.5°F-0.3°C 59% 8.1 mph WNW13.0 kmh WNW 16.0 mph25.7 kmh 30.23 in1023.7 mb 0.00 in0.0 mm 0.00 in0.0 mm 0.01 in0.3 mm
12:05 PM 44.9°F7.2°C 31.9°F-0.1°C 60% 8.4 mph WNW13.5 kmh WNW 19.0 mph30.6 kmh 30.22 in1023.4 mb 0.00 in0.0 mm 0.00 in0.0 mm 0.01 in0.3 mm
12:10 PM 44.8°F7.1°C 31.8°F-0.1°C 60% 10.3 mph WNW16.6 kmh WNW 20.0 mph32.2 kmh 30.22 in1023.4 mb 0.00 in0.0 mm 0.00 in0.0 mm 0.01 in0.3 mm
12:15 PM 45.2°F7.3°C 31.7°F-0.2°C 59% 8.4 mph W13.5 kmh W 20.0 mph32.2 kmh 30.23 in1023.7 mb 0.00 in0.0 mm 0.00 in0.0 mm 0.01 in0.3 mm
12:20 PM 45.6°F7.6°C 31.7°F-0.2°C 58% 8.3 mph W13.4 kmh W 20.0 mph32.2 kmh 30.22 in1023.4 mb 0.00 in0.0 mm 0.00 in0.0 mm 0.01 in0.3 mm
12:25 PM 45.5°F7.5°C 31.6°F-0.2°C 58% 10.1 mph WNW16.3 kmh WNW 25.0 mph40.2 kmh 30.23 in1023.7 mb 0.00 in0.0 mm 0.00 in0.0 mm 0.01 in0.3 mm
12:30 PM 45.1°F7.3°C 31.6°F-0.2°C 59% 11.0 mph W17.7 kmh W 25.0 mph40.2 kmh 30.24 in1024.0 mb 0.00 in0.0 mm 0.00 in0.0 mm 0.01 in0.3 mm
12:35 PM 44.0°F6.7°C 32.2°F0.1°C 63% 10.9 mph W17.5 kmh W 25.0 mph40.2 kmh 30.23 in1023.7 mb 0.00 in0.0 mm 0.00 in0.0 mm 0.01 in0.3 mm
12:40 PM 43.4°F6.3°C 32.0°F0.0°C 64% 14.9 mph W24.0 kmh W 29.0 mph46.7 kmh 30.23 in1023.7 mb 0.00 in0.0 mm 0.00 in0.0 mm 0.01 in0.3 mm
12:45 PM 43.4°F6.3°C 32.0°F0.0°C 64% 13.7 mph W22.0 kmh W 29.0 mph46.7 kmh 30.23 in1023.7 mb 0.00 in0.0 mm 0.00 in0.0 mm 0.01 in0.3 mm
12:50 PM 43.3°F6.3°C 32.0°F0.0°C 64% 14.5 mph WNW23.3 kmh WNW 27.0 mph43.5 kmh 30.22 in1023.4 mb 0.00 in0.0 mm 0.00 in0.0 mm 0.01 in0.3 mm
12:55 PM 43.5°F6.4°C 31.8°F-0.1°C 63% 12.1 mph WNW19.5 kmh WNW 25.0 mph40.2 kmh 30.22 in1023.4 mb 0.00 in0.0 mm 0.00 in0.0 mm 0.01 in0.3 mm
01:00 PM 43.1°F6.2°C 31.8°F-0.1°C 64% 9.8 mph WSW15.8 kmh WSW 25.0 mph40.2 kmh 30.21 in1023.0 mb 0.00 in0.0 mm 0.00 in0.0 mm 0.01 in0.3 mm
01:05 PM 42.3°F5.7°C 31.8°F-0.1°C 66% 17.4 mph SW28.0 kmh SW 34.0 mph54.7 kmh 30.21 in1023.0 mb 0.00 in0.0 mm 0.00 in0.0 mm 0.01 in0.3 mm
01:10 PM 41.9°F5.5°C 31.8°F-0.1°C 67% 14.3 mph WSW23.0 kmh WSW 34.0 mph54.7 kmh 30.21 in1023.0 mb 0.00 in0.0 mm 0.00 in0.0 mm 0.01 in0.3 mm
01:15 PM 41.7°F5.4°C 31.9°F-0.1°C 68% 14.1 mph W22.7 kmh W 32.0 mph51.5 kmh 30.20 in1022.7 mb 0.00 in0.0 mm 0.00 in0.0 mm 0.01 in0.3 mm
01:20 PM 41.8°F5.4°C 32.0°F0.0°C 68% 12.1 mph SW19.5 kmh SW 32.0 mph51.5 kmh 30.21 in1023.0 mb 0.00 in0.0 mm 0.00 in0.0 mm 0.01 in0.3 mm
01:25 PM 41.7°F5.4°C 32.3°F0.2°C 69% 11.6 mph WSW18.7 kmh WSW 24.0 mph38.6 kmh 30.20 in1022.7 mb 0.00 in0.0 mm 0.00 in0.0 mm 0.01 in0.3 mm
01:30 PM 41.6°F5.3°C 32.2°F0.1°C 69% 14.3 mph WSW23.0 kmh WSW 28.0 mph45.1 kmh 30.21 in1023.0 mb 0.00 in0.0 mm 0.00 in0.0 mm 0.01 in0.3 mm
01:35 PM 41.7°F5.4°C 31.9°F-0.1°C 68% 13.8 mph SW22.2 kmh SW 28.0 mph45.1 kmh 30.20 in1022.7 mb 0.00 in0.0 mm 0.00 in0.0 mm 0.01 in0.3 mm
01:40 PM 41.7°F5.4°C 32.3°F0.2°C 69% 16.3 mph WSW26.2 kmh WSW 31.0 mph49.9 kmh 30.20 in1022.7 mb 0.00 in0.0 mm 0.00 in0.0 mm 0.01 in0.3 mm
01:45 PM 41.8°F5.4°C 32.4°F0.2°C 69% 16.4 mph SW26.4 kmh SW 35.0 mph56.3 kmh 30.20 in1022.7 mb 0.00 in0.0 mm 0.00 in0.0 mm 0.01 in0.3 mm
01:50 PM 41.7°F5.4°C 32.3°F0.2°C 69% 16.5 mph WSW26.6 kmh WSW 35.0 mph56.3 kmh 30.20 in1022.7 mb 0.00 in0.0 mm 0.00 in0.0 mm 0.01 in0.3 mm
01:55 PM 41.6°F5.3°C 32.2°F0.1°C 69% 15.3 mph WSW24.6 kmh WSW 30.0 mph48.3 kmh 30.21 in1023.0 mb 0.00 in0.0 mm 0.00 in0.0 mm 0.01 in0.3 mm
02:00 PM 41.6°F5.3°C 32.2°F0.1°C 69% 13.5 mph SW21.7 kmh SW 26.0 mph41.8 kmh 30.20 in1022.7 mb 0.00 in0.0 mm 0.00 in0.0 mm 0.01 in0.3 mm
02:05 PM 41.6°F5.3°C 32.6°F0.3°C 70% 15.3 mph WSW24.6 kmh WSW 29.0 mph46.7 kmh 30.20 in1022.7 mb 0.00 in0.0 mm 0.00 in0.0 mm 0.01 in0.3 mm
02:10 PM 41.6°F5.3°C 32.6°F0.3°C 70% 18.2 mph SW29.3 kmh SW 33.0 mph53.1 kmh 30.20 in1022.7 mb 0.00 in0.0 mm 0.00 in0.0 mm 0.01 in0.3 mm
02:15 PM 41.8°F5.4°C 32.7°F0.4°C 70% 17.2 mph SW27.7 kmh SW 33.0 mph53.1 kmh 30.20 in1022.7 mb 0.00 in0.0 mm 0.00 in0.0 mm 0.01 in0.3 mm
02:20 PM 41.9°F5.5°C 32.5°F0.3°C 69% 16.2 mph WSW26.1 kmh WSW 33.0 mph53.1 kmh 30.19 in1022.4 mb 0.00 in0.0 mm 0.00 in0.0 mm 0.01 in0.3 mm
02:25 PM 42.0°F5.6°C 32.6°F0.3°C 69% 19.6 mph SW31.5 kmh SW 35.0 mph56.3 kmh 30.20 in1022.7 mb 0.00 in0.0 mm 0.00 in0.0 mm 0.01 in0.3 mm
02:30 PM 41.8°F5.4°C 32.7°F0.4°C 70% 16.8 mph WSW27.0 kmh WSW 35.0 mph56.3 kmh 30.20 in1022.7 mb 0.00 in0.0 mm 0.00 in0.0 mm 0.01 in0.3 mm
02:35 PM 41.6°F5.3°C 32.9°F0.5°C 71% 14.1 mph WSW22.7 kmh WSW 32.0 mph51.5 kmh 30.19 in1022.4 mb 0.00 in0.0 mm 0.00 in0.0 mm 0.01 in0.3 mm
02:40 PM 41.4°F5.2°C 33.1°F0.6°C 72% 18.1 mph SW29.1 kmh SW 32.0 mph51.5 kmh 30.20 in1022.7 mb 0.00 in0.0 mm 0.00 in0.0 mm 0.01 in0.3 mm
02:45 PM 41.1°F5.1°C 33.1°F0.6°C 73% 14.8 mph WSW23.8 kmh WSW 32.0 mph51.5 kmh 30.20 in1022.7 mb 0.00 in0.0 mm 0.00 in0.0 mm 0.01 in0.3 mm
02:50 PM 41.0°F5.0°C 33.4°F0.8°C 74% 12.1 mph WSW19.5 kmh WSW 32.0 mph51.5 kmh 30.21 in1023.0 mb 0.00 in0.0 mm 0.00 in0.0 mm 0.01 in0.3 mm
02:55 PM 41.2°F5.1°C 33.6°F0.9°C 74% 9.7 mph SW15.6 kmh SW 27.0 mph43.5 kmh 30.20 in1022.7 mb 0.00 in0.0 mm 0.00 in0.0 mm 0.01 in0.3 mm
03:00 PM 41.2°F5.1°C 33.2°F0.7°C 73% 10.1 mph WSW16.3 kmh WSW 23.0 mph37.0 kmh 30.20 in1022.7 mb 0.00 in0.0 mm 0.00 in0.0 mm 0.01 in0.3 mm
03:05 PM 41.1°F5.1°C 33.5°F0.8°C 74% 9.7 mph WSW15.6 kmh WSW 23.0 mph37.0 kmh 30.20 in1022.7 mb 0.00 in0.0 mm 0.00 in0.0 mm 0.01 in0.3 mm
03:10 PM 41.2°F5.1°C 33.2°F0.7°C 73% 8.5 mph WSW13.7 kmh WSW 23.0 mph37.0 kmh 30.22 in1023.4 mb 0.00 in0.0 mm 0.00 in0.0 mm 0.01 in0.3 mm
03:15 PM 41.5°F5.3°C 33.5°F0.8°C 73% 5.8 mph WSW9.3 kmh WSW 20.0 mph32.2 kmh 30.21 in1023.0 mb 0.00 in0.0 mm 0.00 in0.0 mm 0.01 in0.3 mm
03:20 PM 41.6°F5.3°C 33.3°F0.7°C 72% 8.9 mph WSW14.3 kmh WSW 17.0 mph27.4 kmh 30.21 in1023.0 mb 0.00 in0.0 mm 0.00 in0.0 mm 0.01 in0.3 mm
03:25 PM 41.4°F5.2°C 33.1°F0.6°C 72% 10.4 mph W16.7 kmh W 28.0 mph45.1 kmh 30.20 in1022.7 mb 0.00 in0.0 mm 0.00 in0.0 mm 0.01 in0.3 mm
03:30 PM 41.7°F5.4°C 33.4°F0.8°C 72% 9.0 mph WSW14.5 kmh WSW 28.0 mph45.1 kmh 30.21 in1023.0 mb 0.00 in0.0 mm 0.00 in0.0 mm 0.01 in0.3 mm
03:35 PM 42.4°F5.8°C 33.7°F0.9°C 71% 6.8 mph WSW10.9 kmh WSW 21.0 mph33.8 kmh 30.20 in1022.7 mb 0.00 in0.0 mm 0.00 in0.0 mm 0.01 in0.3 mm
03:40 PM 42.8°F6.0°C 33.7°F0.9°C 70% 8.1 mph NW13.0 kmh NW 17.0 mph27.4 kmh 30.21 in1023.0 mb 0.00 in0.0 mm 0.00 in0.0 mm 0.01 in0.3 mm
03:45 PM 42.4°F5.8°C 33.3°F0.7°C 70% 9.8 mph NW15.8 kmh NW 26.0 mph41.8 kmh 30.21 in1023.0 mb 0.00 in0.0 mm 0.00 in0.0 mm 0.01 in0.3 mm
03:50 PM 41.9°F5.5°C 33.2°F0.7°C 71% 7.7 mph NW12.4 kmh NW 26.0 mph41.8 kmh 30.20 in1022.7 mb 0.00 in0.0 mm 0.00 in0.0 mm 0.01 in0.3 mm
03:55 PM 41.5°F5.3°C 33.2°F0.7°C 72% 10.7 mph NW17.2 kmh NW 28.0 mph45.1 kmh 30.20 in1022.7 mb 0.00 in0.0 mm 0.00 in0.0 mm 0.01 in0.3 mm
04:00 PM 41.5°F5.3°C 33.2°F0.7°C 72% 8.1 mph NW13.0 kmh NW 28.0 mph45.1 kmh 30.20 in1022.7 mb 0.00 in0.0 mm 0.00 in0.0 mm 0.01 in0.3 mm
04:05 PM 41.7°F5.4°C 33.4°F0.8°C 72% 10.1 mph N16.3 kmh N 24.0 mph38.6 kmh 30.18 in1022.0 mb 0.00 in0.0 mm 0.00 in0.0 mm 0.01 in0.3 mm
04:10 PM 41.8°F5.4°C 33.1°F0.6°C 71% 1.7 mph NW2.7 kmh NW 20.0 mph32.2 kmh 30.18 in1022.0 mb 0.00 in0.0 mm 0.00 in0.0 mm 0.01 in0.3 mm
04:15 PM 41.5°F5.3°C 32.8°F0.4°C 71% 3.5 mph NW5.6 kmh NW 14.0 mph22.5 kmh 30.17 in1021.7 mb 0.00 in0.0 mm 0.00 in0.0 mm 0.01 in0.3 mm
04:20 PM 41.3°F5.2°C 32.6°F0.3°C 71% 6.3 mph WNW10.1 kmh WNW 18.0 mph29.0 kmh 30.17 in1021.7 mb 0.00 in0.0 mm 0.00 in0.0 mm 0.01 in0.3 mm
04:25 PM 41.3°F5.2°C 32.6°F0.3°C 71% 14.5 mph NNW23.3 kmh NNW 33.0 mph53.1 kmh 30.18 in1022.0 mb 0.00 in0.0 mm 0.00 in0.0 mm 0.01 in0.3 mm
04:30 PM 41.2°F5.1°C 32.5°F0.3°C 71% 11.5 mph NW18.5 kmh NW 33.0 mph53.1 kmh 30.17 in1021.7 mb 0.00 in0.0 mm 0.00 in0.0 mm 0.01 in0.3 mm
04:35 PM 41.2°F5.1°C 32.9°F0.5°C 72% 9.4 mph NW15.1 kmh NW 27.0 mph43.5 kmh 30.17 in1021.7 mb 0.00 in0.0 mm 0.00 in0.0 mm 0.01 in0.3 mm
04:40 PM 41.2°F5.1°C 32.5°F0.3°C 71% 10.5 mph WSW16.9 kmh WSW 22.0 mph35.4 kmh 30.17 in1021.7 mb 0.00 in0.0 mm 0.00 in0.0 mm 0.01 in0.3 mm
04:45 PM 41.4°F5.2°C 32.7°F0.4°C 71% 8.2 mph SW13.2 kmh SW 22.0 mph35.4 kmh 30.18 in1022.0 mb 0.00 in0.0 mm 0.00 in0.0 mm 0.01 in0.3 mm
04:50 PM 41.4°F5.2°C 32.7°F0.4°C 71% 4.1 mph NE6.6 kmh NE 21.0 mph33.8 kmh 30.19 in1022.4 mb 0.00 in0.0 mm 0.00 in0.0 mm 0.01 in0.3 mm
04:55 PM 41.4°F5.2°C 32.7°F0.4°C 71% 6.2 mph WSW10.0 kmh WSW 15.0 mph24.1 kmh 30.19 in1022.4 mb 0.00 in0.0 mm 0.00 in0.0 mm 0.01 in0.3 mm
05:00 PM 41.3°F5.2°C 32.6°F0.3°C 71% 4.1 mph SSW6.6 kmh SSW 15.0 mph24.1 kmh 30.20 in1022.7 mb 0.00 in0.0 mm 0.00 in0.0 mm 0.01 in0.3 mm
05:05 PM 41.3°F5.2°C 32.6°F0.3°C 71% 3.5 mph SW5.6 kmh SW 13.0 mph20.9 kmh 30.20 in1022.7 mb 0.00 in0.0 mm 0.00 in0.0 mm 0.01 in0.3 mm
05:10 PM 41.3°F5.2°C 32.6°F0.3°C 71% 3.4 mph WNW5.5 kmh WNW 11.0 mph17.7 kmh 30.19 in1022.4 mb 0.00 in0.0 mm 0.00 in0.0 mm 0.01 in0.3 mm
05:15 PM 41.3°F5.2°C 33.0°F0.6°C 72% 6.0 mph WSW9.7 kmh WSW 15.0 mph24.1 kmh 30.19 in1022.4 mb 0.00 in0.0 mm 0.00 in0.0 mm 0.01 in0.3 mm
05:20 PM 41.3°F5.2°C 32.6°F0.3°C 71% 6.2 mph NW10.0 kmh NW 19.0 mph30.6 kmh 30.19 in1022.4 mb 0.00 in0.0 mm 0.00 in0.0 mm 0.01 in0.3 mm
05:25 PM 41.4°F5.2°C 32.7°F0.4°C 71% 6.0 mph NW9.7 kmh NW 19.0 mph30.6 kmh 30.20 in1022.7 mb 0.00 in0.0 mm 0.00 in0.0 mm 0.01 in0.3 mm
05:30 PM 41.5°F5.3°C 32.5°F0.3°C 70% 6.7 mph NNW10.8 kmh NNW 18.0 mph29.0 kmh 30.20 in1022.7 mb 0.00 in0.0 mm 0.00 in0.0 mm 0.01 in0.3 mm
05:35 PM 41.5°F5.3°C 32.5°F0.3°C 70% 7.4 mph NW11.9 kmh NW 18.0 mph29.0 kmh 30.20 in1022.7 mb 0.00 in0.0 mm 0.00 in0.0 mm 0.01 in0.3 mm
05:40 PM 41.6°F5.3°C 32.6°F0.3°C 70% 7.1 mph N11.4 kmh N 19.0 mph30.6 kmh 30.20 in1022.7 mb 0.00 in0.0 mm 0.00 in0.0 mm 0.01 in0.3 mm
05:45 PM 41.4°F5.2°C 32.7°F0.4°C 71% 6.9 mph W11.1 kmh W 20.0 mph32.2 kmh 30.20 in1022.7 mb 0.00 in0.0 mm 0.00 in0.0 mm 0.01 in0.3 mm
05:50 PM 41.3°F5.2°C 33.0°F0.6°C 72% 5.9 mph W9.5 kmh W 20.0 mph32.2 kmh 30.20 in1022.7 mb 0.00 in0.0 mm 0.00 in0.0 mm 0.01 in0.3 mm
05:55 PM 41.1°F5.1°C 33.1°F0.6°C 73% 7.1 mph W11.4 kmh W 17.0 mph27.4 kmh 30.20 in1022.7 mb 0.00 in0.0 mm 0.00 in0.0 mm 0.01 in0.3 mm
06:00 PM 40.9°F4.9°C 32.9°F0.5°C 73% 5.8 mph W9.3 kmh W 18.0 mph29.0 kmh 30.20 in1022.7 mb 0.00 in0.0 mm 0.00 in0.0 mm 0.01 in0.3 mm
06:05 PM 40.8°F4.9°C 33.2°F0.7°C 74% 3.2 mph WSW5.1 kmh WSW 18.0 mph29.0 kmh 30.20 in1022.7 mb 0.00 in0.0 mm 0.00 in0.0 mm 0.01 in0.3 mm
06:10 PM 40.6°F4.8°C 33.3°F0.7°C 75% 5.9 mph NW9.5 kmh NW 16.0 mph25.7 kmh 30.21 in1023.0 mb 0.00 in0.0 mm 0.00 in0.0 mm 0.01 in0.3 mm
06:15 PM 40.6°F4.8°C 33.3°F0.7°C 75% 4.0 mph NW6.4 kmh NW 16.0 mph25.7 kmh 30.20 in1022.7 mb 0.00 in0.0 mm 0.00 in0.0 mm 0.01 in0.3 mm
06:20 PM 40.6°F4.8°C 33.0°F0.6°C 74% 6.4 mph N10.3 kmh N 17.0 mph27.4 kmh 30.20 in1022.7 mb 0.00 in0.0 mm 0.00 in0.0 mm 0.01 in0.3 mm
06:25 PM 40.6°F4.8°C 33.0°F0.6°C 74% 5.8 mph NW9.3 kmh NW 18.0 mph29.0 kmh 30.21 in1023.0 mb 0.00 in0.0 mm 0.00 in0.0 mm 0.01 in0.3 mm
06:30 PM 40.6°F4.8°C 33.3°F0.7°C 75% 4.8 mph WNW7.7 kmh WNW 18.0 mph29.0 kmh 30.21 in1023.0 mb 0.00 in0.0 mm 0.00 in0.0 mm 0.01 in0.3 mm
06:35 PM 40.6°F4.8°C 33.3°F0.7°C 75% 4.9 mph WSW7.9 kmh WSW 16.0 mph25.7 kmh 30.20 in1022.7 mb 0.00 in0.0 mm 0.00 in0.0 mm 0.01 in0.3 mm
06:40 PM 40.6°F4.8°C 33.3°F0.7°C 75% 5.9 mph NNE9.5 kmh NNE 16.0 mph25.7 kmh 30.21 in1023.0 mb 0.00 in0.0 mm 0.00 in0.0 mm 0.01 in0.3 mm
06:45 PM 40.6°F4.8°C 33.0°F0.6°C 74% 3.9 mph E6.3 kmh E 15.0 mph24.1 kmh 30.21 in1023.0 mb 0.00 in0.0 mm 0.00 in0.0 mm 0.01 in0.3 mm
06:50 PM 40.6°F4.8°C 33.0°F0.6°C 74% 3.7 mph N6.0 kmh N 11.0 mph17.7 kmh 30.21 in1023.0 mb 0.00 in0.0 mm 0.00 in0.0 mm 0.01 in0.3 mm
06:55 PM 40.6°F4.8°C 33.0°F0.6°C 74% 1.9 mph NE3.1 kmh NE 11.0 mph17.7 kmh 30.21 in1023.0 mb 0.00 in0.0 mm 0.00 in0.0 mm 0.01 in0.3 mm
07:00 PM 40.7°F4.8°C 33.1°F0.6°C 74% 6.7 mph SW10.8 kmh SW 19.0 mph30.6 kmh 30.20 in1022.7 mb 0.00 in0.0 mm 0.00 in0.0 mm 0.01 in0.3 mm
07:05 PM 40.7°F4.8°C 33.1°F0.6°C 74% 10.4 mph W16.7 kmh W 23.0 mph37.0 kmh 30.19 in1022.4 mb 0.00 in0.0 mm 0.00 in0.0 mm 0.01 in0.3 mm
07:10 PM 40.9°F4.9°C 32.9°F0.5°C 73% 12.5 mph W20.1 kmh W 27.0 mph43.5 kmh 30.18 in1022.0 mb 0.00 in0.0 mm 0.00 in0.0 mm 0.01 in0.3 mm
07:15 PM 41.0°F5.0°C 33.0°F0.6°C 73% 13.3 mph W21.4 kmh W 28.0 mph45.1 kmh 30.18 in1022.0 mb 0.00 in0.0 mm 0.00 in0.0 mm 0.01 in0.3 mm
07:20 PM 41.0°F5.0°C 32.7°F0.4°C 72% 13.6 mph W21.9 kmh W 28.0 mph45.1 kmh 30.18 in1022.0 mb 0.00 in0.0 mm 0.00 in0.0 mm 0.01 in0.3 mm
07:25 PM 41.0°F5.0°C 32.7°F0.4°C 72% 12.1 mph W19.5 kmh W 24.0 mph38.6 kmh 30.17 in1021.7 mb 0.00 in0.0 mm 0.00 in0.0 mm 0.01 in0.3 mm
07:30 PM 41.0°F5.0°C 32.7°F0.4°C 72% 9.7 mph W15.6 kmh W 24.0 mph38.6 kmh 30.17 in1021.7 mb 0.00 in0.0 mm 0.00 in0.0 mm 0.01 in0.3 mm
07:35 PM 41.0°F5.0°C 33.0°F0.6°C 73% 12.2 mph WNW19.6 kmh WNW 24.0 mph38.6 kmh 30.17 in1021.7 mb 0.00 in0.0 mm 0.00 in0.0 mm 0.01 in0.3 mm
07:40 PM 41.1°F5.1°C 32.8°F0.4°C 72% 13.4 mph WNW21.6 kmh WNW 33.0 mph53.1 kmh 30.17 in1021.7 mb 0.00 in0.0 mm 0.00 in0.0 mm 0.01 in0.3 mm
07:45 PM 41.1°F5.1°C 32.8°F0.4°C 72% 10.5 mph WNW16.9 kmh WNW 33.0 mph53.1 kmh 30.17 in1021.7 mb 0.00 in0.0 mm 0.00 in0.0 mm 0.01 in0.3 mm
07:50 PM 41.0°F5.0°C 32.7°F0.4°C 72% 11.6 mph WNW18.7 kmh WNW 29.0 mph46.7 kmh 30.17 in1021.7 mb 0.00 in0.0 mm 0.00 in0.0 mm 0.01 in0.3 mm
07:55 PM 41.2°F5.1°C 32.9°F0.5°C 72% 12.9 mph NW20.8 kmh NW 32.0 mph51.5 kmh 30.17 in1021.7 mb 0.00 in0.0 mm 0.00 in0.0 mm 0.01 in0.3 mm
08:00 PM 41.3°F5.2°C 32.6°F0.3°C 71% 13.8 mph NW22.2 kmh NW 32.0 mph51.5 kmh 30.17 in1021.7 mb 0.00 in0.0 mm 0.00 in0.0 mm 0.01 in0.3 mm
08:05 PM 41.4°F5.2°C 32.7°F0.4°C 71% 10.4 mph NW16.7 kmh NW 30.0 mph48.3 kmh 30.17 in1021.7 mb 0.00 in0.0 mm 0.00 in0.0 mm 0.01 in0.3 mm
08:10 PM 41.5°F5.3°C 32.5°F0.3°C 70% 12.0 mph NW19.3 kmh NW 27.0 mph43.5 kmh 30.18 in1022.0 mb 0.00 in0.0 mm 0.00 in0.0 mm 0.01 in0.3 mm
08:15 PM 41.6°F5.3°C 32.6°F0.3°C 70% 13.5 mph NW21.7 kmh NW 31.0 mph49.9 kmh 30.18 in1022.0 mb 0.00 in0.0 mm 0.00 in0.0 mm 0.01 in0.3 mm
08:20 PM 41.6°F5.3°C 32.6°F0.3°C 70% 12.6 mph NW20.3 kmh NW 31.0 mph49.9 kmh 30.18 in1022.0 mb 0.00 in0.0 mm 0.00 in0.0 mm 0.01 in0.3 mm
08:25 PM 41.5°F5.3°C 32.5°F0.3°C 70% 12.2 mph NW19.6 kmh NW 27.0 mph43.5 kmh 30.18 in1022.0 mb 0.00 in0.0 mm 0.00 in0.0 mm 0.01 in0.3 mm
08:30 PM 41.4°F5.2°C 32.7°F0.4°C 71% 10.8 mph NW17.4 kmh NW 24.0 mph38.6 kmh 30.18 in1022.0 mb 0.00 in0.0 mm 0.00 in0.0 mm 0.01 in0.3 mm
08:35 PM 41.3°F5.2°C 32.6°F0.3°C 71% 9.1 mph WNW14.6 kmh WNW 24.0 mph38.6 kmh 30.18 in1022.0 mb 0.00 in0.0 mm 0.00 in0.0 mm 0.01 in0.3 mm
08:40 PM 41.2°F5.1°C 32.5°F0.3°C 71% 8.6 mph WNW13.8 kmh WNW 19.0 mph30.6 kmh 30.17 in1021.7 mb 0.00 in0.0 mm 0.00 in0.0 mm 0.01 in0.3 mm
08:45 PM 41.3°F5.2°C 32.3°F0.2°C 70% 11.6 mph NW18.7 kmh NW 21.0 mph33.8 kmh 30.18 in1022.0 mb 0.00 in0.0 mm 0.00 in0.0 mm 0.01 in0.3 mm
08:50 PM 41.2°F5.1°C 32.2°F0.1°C 70% 5.9 mph W9.5 kmh W 21.0 mph33.8 kmh 30.18 in1022.0 mb 0.00 in0.0 mm 0.00 in0.0 mm 0.01 in0.3 mm
08:55 PM 41.3°F5.2°C 32.3°F0.2°C 70% 9.0 mph WNW14.5 kmh WNW 20.0 mph32.2 kmh 30.17 in1021.7 mb 0.00 in0.0 mm 0.00 in0.0 mm 0.01 in0.3 mm
09:00 PM 41.4°F5.2°C 32.0°F0.0°C 69% 7.1 mph W11.4 kmh W 20.0 mph32.2 kmh 30.17 in1021.7 mb 0.00 in0.0 mm 0.00 in0.0 mm 0.01 in0.3 mm
09:05 PM 41.5°F5.3°C 32.1°F0.1°C 69% 10.1 mph WNW16.3 kmh WNW 29.0 mph46.7 kmh 30.18 in1022.0 mb 0.00 in0.0 mm 0.00 in0.0 mm 0.01 in0.3 mm
09:10 PM 41.6°F5.3°C 31.8°F-0.1°C 68% 11.7 mph NW18.8 kmh NW 29.0 mph46.7 kmh 30.18 in1022.0 mb 0.00 in0.0 mm 0.00 in0.0 mm 0.01 in0.3 mm
09:15 PM 41.6°F5.3°C 31.8°F-0.1°C 68% 9.0 mph W14.5 kmh W 24.0 mph38.6 kmh 30.17 in1021.7 mb 0.00 in0.0 mm 0.00 in0.0 mm 0.01 in0.3 mm
09:20 PM 41.5°F5.3°C 31.7°F-0.2°C 68% 9.0 mph W14.5 kmh W 17.0 mph27.4 kmh 30.18 in1022.0 mb 0.00 in0.0 mm 0.00 in0.0 mm 0.01 in0.3 mm
09:25 PM 41.6°F5.3°C 32.2°F0.1°C 69% 12.3 mph WNW19.8 kmh WNW 24.0 mph38.6 kmh 30.18 in1022.0 mb 0.00 in0.0 mm 0.00 in0.0 mm 0.01 in0.3 mm
09:30 PM 41.4°F5.2°C 32.4°F0.2°C 70% 10.6 mph WNW17.1 kmh WNW 29.0 mph46.7 kmh 30.18 in1022.0 mb 0.00 in0.0 mm 0.00 in0.0 mm 0.01 in0.3 mm
09:35 PM 41.4°F5.2°C 32.4°F0.2°C 70% 13.2 mph NW21.2 kmh NW 29.0 mph46.7 kmh 30.18 in1022.0 mb 0.00 in0.0 mm 0.00 in0.0 mm 0.01 in0.3 mm
09:40 PM 41.2°F5.1°C 32.2°F0.1°C 70% 5.6 mph W9.0 kmh W 27.0 mph43.5 kmh 30.19 in1022.4 mb 0.00 in0.0 mm 0.00 in0.0 mm 0.01 in0.3 mm
09:45 PM 41.0°F5.0°C 32.0°F0.0°C 70% 6.1 mph WSW9.8 kmh WSW 16.0 mph25.7 kmh 30.19 in1022.4 mb 0.00 in0.0 mm 0.00 in0.0 mm 0.01 in0.3 mm
09:50 PM 41.0°F5.0°C 32.3°F0.2°C 71% 6.6 mph W10.6 kmh W 19.0 mph30.6 kmh 30.19 in1022.4 mb 0.00 in0.0 mm 0.00 in0.0 mm 0.01 in0.3 mm
09:55 PM 41.0°F5.0°C 32.0°F0.0°C 70% 8.0 mph W12.9 kmh W 19.0 mph30.6 kmh 30.18 in1022.0 mb 0.00 in0.0 mm 0.00 in0.0 mm 0.01 in0.3 mm
10:00 PM 41.0°F5.0°C 32.0°F0.0°C 70% 6.2 mph SW10.0 kmh SW 14.0 mph22.5 kmh 30.19 in1022.4 mb 0.00 in0.0 mm 0.00 in0.0 mm 0.01 in0.3 mm
10:05 PM 40.9°F4.9°C 31.9°F-0.1°C 70% 5.1 mph WSW8.2 kmh WSW 14.0 mph22.5 kmh 30.18 in1022.0 mb 0.00 in0.0 mm 0.00 in0.0 mm 0.01 in0.3 mm
10:10 PM 40.7°F4.8°C 31.7°F-0.2°C 70% 8.6 mph SW13.8 kmh SW 16.0 mph25.7 kmh 30.19 in1022.4 mb 0.00 in0.0 mm 0.00 in0.0 mm 0.01 in0.3 mm
10:15 PM 40.7°F4.8°C 31.7°F-0.2°C 70% 7.7 mph SW12.4 kmh SW 16.0 mph25.7 kmh 30.18 in1022.0 mb 0.00 in0.0 mm 0.00 in0.0 mm 0.01 in0.3 mm
10:20 PM 40.8°F4.9°C 31.8°F-0.1°C 70% 8.3 mph SW13.4 kmh SW 17.0 mph27.4 kmh 30.19 in1022.4 mb 0.00 in0.0 mm 0.00 in0.0 mm 0.01 in0.3 mm
10:25 PM 40.6°F4.8°C 31.6°F-0.2°C 70% 7.2 mph SW11.6 kmh SW 17.0 mph27.4 kmh 30.19 in1022.4 mb 0.00 in0.0 mm 0.00 in0.0 mm 0.01 in0.3 mm
10:30 PM 40.6°F4.8°C 31.6°F-0.2°C 70% 8.5 mph SW13.7 kmh SW 18.0 mph29.0 kmh 30.18 in1022.0 mb 0.00 in0.0 mm 0.00 in0.0 mm 0.01 in0.3 mm
10:35 PM 40.5°F4.7°C 31.8°F-0.1°C 71% 7.6 mph SW12.2 kmh SW 18.0 mph29.0 kmh 30.18 in1022.0 mb 0.00 in0.0 mm 0.00 in0.0 mm 0.01 in0.3 mm
10:40 PM 40.6°F4.8°C 31.9°F-0.1°C 71% 8.7 mph WSW14.0 kmh WSW 19.0 mph30.6 kmh 30.19 in1022.4 mb 0.00 in0.0 mm 0.00 in0.0 mm 0.01 in0.3 mm
10:45 PM 40.6°F4.8°C 32.3°F0.2°C 72% 14.2 mph WSW22.9 kmh WSW 25.0 mph40.2 kmh 30.18 in1022.0 mb 0.00 in0.0 mm 0.00 in0.0 mm 0.01 in0.3 mm
10:50 PM 40.7°F4.8°C 32.0°F0.0°C 71% 10.6 mph WSW17.1 kmh WSW 25.0 mph40.2 kmh 30.19 in1022.4 mb 0.00 in0.0 mm 0.00 in0.0 mm 0.01 in0.3 mm
10:55 PM 40.9°F4.9°C 31.9°F-0.1°C 70% 11.1 mph WSW17.9 kmh WSW 21.0 mph33.8 kmh 30.19 in1022.4 mb 0.00 in0.0 mm 0.00 in0.0 mm 0.01 in0.3 mm
11:00 PM 40.9°F4.9°C 31.9°F-0.1°C 70% 8.6 mph W13.8 kmh W 21.0 mph33.8 kmh 30.19 in1022.4 mb 0.00 in0.0 mm 0.00 in0.0 mm 0.01 in0.3 mm
11:05 PM 40.7°F4.8°C 31.7°F-0.2°C 70% 8.0 mph WSW12.9 kmh WSW 18.0 mph29.0 kmh 30.19 in1022.4 mb 0.00 in0.0 mm 0.00 in0.0 mm 0.01 in0.3 mm
11:10 PM 40.9°F4.9°C 31.5°F-0.3°C 69% 9.8 mph WSW15.8 kmh WSW 16.0 mph25.7 kmh 30.18 in1022.0 mb 0.00 in0.0 mm 0.00 in0.0 mm 0.01 in0.3 mm
11:15 PM 41.1°F5.1°C 31.4°F-0.3°C 68% 8.7 mph SW14.0 kmh SW 17.0 mph27.4 kmh 30.18 in1022.0 mb 0.00 in0.0 mm 0.00 in0.0 mm 0.01 in0.3 mm
11:20 PM 40.9°F4.9°C 31.2°F-0.4°C 68% 8.9 mph SW14.3 kmh SW 17.0 mph27.4 kmh 30.18 in1022.0 mb 0.00 in0.0 mm 0.00 in0.0 mm 0.01 in0.3 mm
11:25 PM 40.7°F4.8°C 31.0°F-0.6°C 68% 9.8 mph SW15.8 kmh SW 15.0 mph24.1 kmh 30.17 in1021.7 mb 0.00 in0.0 mm 0.00 in0.0 mm 0.01 in0.3 mm
11:30 PM 40.6°F4.8°C 30.9°F-0.6°C 68% 8.2 mph SW13.2 kmh SW 16.0 mph25.7 kmh 30.17 in1021.7 mb 0.00 in0.0 mm 0.00 in0.0 mm 0.01 in0.3 mm
11:35 PM 40.5°F4.7°C 30.8°F-0.7°C 68% 10.0 mph SW16.1 kmh SW 16.0 mph25.7 kmh 30.17 in1021.7 mb 0.00 in0.0 mm 0.00 in0.0 mm 0.01 in0.3 mm
11:40 PM 40.7°F4.8°C 31.0°F-0.6°C 68% 9.3 mph SSW15.0 kmh SSW 16.0 mph25.7 kmh 30.17 in1021.7 mb 0.00 in0.0 mm 0.00 in0.0 mm 0.01 in0.3 mm
11:45 PM 40.9°F4.9°C 30.8°F-0.7°C 67% 10.6 mph SSW17.1 kmh SSW 18.0 mph29.0 kmh 30.17 in1021.7 mb 0.00 in0.0 mm 0.00 in0.0 mm 0.01 in0.3 mm
11:50 PM 40.9°F4.9°C 30.8°F-0.7°C 67% 12.1 mph SW19.5 kmh SW 18.0 mph29.0 kmh 30.16 in1021.3 mb 0.00 in0.0 mm 0.00 in0.0 mm 0.01 in0.3 mm
11:55 PM 41.0°F5.0°C 30.9°F-0.6°C 67% 9.5 mph SW15.3 kmh SW 17.0 mph27.4 kmh 30.16 in1021.3 mb 0.00 in0.0 mm 0.00 in0.0 mm 0.01 in0.3 mm